Koushinmaru No.5 — JL6695 — position and weather

sailwx.info

Track history (hours):
 
Tides and Currents Weather Stations Pressure Air Temp Water Temp Dewpoint Dewpoint Depression Visibility Wind Speed Wind Dir Waves Ship Positions

Koushinmaru No.5

Last reported at 2015-May-26 21:13 UTC. Time now 2015-May-27 07:57 UTC.
Position N 34°05' E 134°48'.

Length 75 m; draft 3.5 m.

Type: Cargo ship. MMSI: 431301703.

Date/timePositionNaut miles runAvg speedWind from/ knotsBaromVisibWave heightAir tempDewpointWater temp
2015-May-26 21:13N 34°05' E 134°48'  
2015-May-22 08:25N 34°02' E 134°52'  
2015-May-20 01:33N 35°26' E 140°40'31 9.2
2015-May-19 22:14N 35°57' E 140°44'2 2.5
2015-May-19 21:23N 35°57' E 140°42'0 0.0
2015-May-19 20:31N 35°57' E 140°42'0 0.0
2015-May-19 19:25N 35°57' E 140°42'0 0.0
2015-May-19 18:27N 35°57' E 140°42'0 0.0
2015-May-19 15:23N 35°57' E 140°42'2 0.2
2015-May-19 02:33N 35°55' E 140°41'0 0.4
2015-May-19 01:19N 35°55' E 140°41'0 0.0
2015-May-19 00:25N 35°55' E 140°41'0 0.0
2015-May-18 23:33N 35°55' E 140°41'0 0.0
2015-May-18 22:27N 35°55' E 140°41'0 0.0
2015-May-18 19:09N 35°55' E 140°41'0 0.0
2015-May-18 17:33N 35°55' E 140°41'7 6.9
2015-May-18 16:32N 36°02' E 140°43'  
Track history (hours):
 
Tides and Currents Weather Stations Pressure Air Temp Water Temp Dewpoint Dewpoint Depression Visibility Wind Speed Wind Dir Waves Ship Positions

Koushinmaru No.5

Last reported at 2015-May-26 21:13 UTC. Time now 2015-May-27 07:57 UTC.
Position N 34°05' E 134°48'.

Length 75 m; draft 3.5 m.

Type: Cargo ship. MMSI: 431301703.

Date/timePositionNaut miles runAvg speedWind from/ knotsBaromVisibWave heightAir tempDewpointWater temp
2015-May-26 21:13N 34°05' E 134°48'  
2015-May-22 08:25N 34°02' E 134°52'  
2015-May-20 01:33N 35°26' E 140°40'31 9.2
2015-May-19 22:14N 35°57' E 140°44'2 2.5
2015-May-19 21:23N 35°57' E 140°42'0 0.0
2015-May-19 20:31N 35°57' E 140°42'0 0.0
2015-May-19 19:25N 35°57' E 140°42'0 0.0
2015-May-19 18:27N 35°57' E 140°42'0 0.0
2015-May-19 15:23N 35°57' E 140°42'2 0.2
2015-May-19 02:33N 35°55' E 140°41'0 0.4
2015-May-19 01:19N 35°55' E 140°41'0 0.0
2015-May-19 00:25N 35°55' E 140°41'0 0.0
2015-May-18 23:33N 35°55' E 140°41'0 0.0
2015-May-18 22:27N 35°55' E 140°41'0 0.0
2015-May-18 19:09N 35°55' E 140°41'0 0.0
2015-May-18 17:33N 35°55' E 140°41'7 6.9
2015-May-18 16:32N 36°02' E 140°43'  

Dump ship's entire track history